Calypso — IYQT — position and weather

sailwx.info

Track history (hours):
 
Tides and Currents Weather Stations Pressure Air Temp Water Temp Dewpoint Dewpoint Depression Visibility Wind Speed Wind Dir Waves Ship Positions

Calypso

Last reported at 2017-Mar-29 10:34 UTC. Time now 2017-Mar-29 11:02 UTC.
Position N 38°14' E 015°16'.

Length 32 m; draft 4.2 m.

Type: High speed craft. MMSI: 247143200.

Date/timePositionNaut miles runAvg speedWind from/ knotsBaromVisibWave heightAir tempDewpointWater temp
2017-Mar-29 10:34N 38°14' E 015°16'2018.9
2017-Mar-29 09:28N 38°28' E 014°58'3 1.1
2017-Mar-29 06:26N 38°32' E 014°57'1315.1
2017-Mar-29 05:33N 38°21' E 015°08'10 9.7
2017-Mar-29 04:33N 38°13' E 015°14'9 0.8
2017-Mar-28 16:33N 38°21' E 015°08'11 2.7
2017-Mar-28 12:26N 38°28' E 014°57'2023.2
2017-Mar-28 11:34N 38°15' E 015°17'3 2.9
2017-Mar-28 10:33N 38°13' E 015°14'0 0.3
2017-Mar-28 09:33N 38°13' E 015°15'0 0.1
2017-Mar-28 08:33N 38°13' E 015°15'0 0.3
2017-Mar-28 07:33N 38°13' E 015°14'2018.6
2017-Mar-28 06:28N 38°28' E 014°57'2223.1
2017-Mar-28 05:32N 38°47' E 015°11'2222.3
2017-Mar-28 04:33N 38°26' E 015°17'1312.8
2017-Mar-28 03:33N 38°13' E 015°14'0 0.0
2017-Mar-27 17:06N 38°13' E 015°14'1018.5
2017-Mar-27 16:33N 38°21' E 015°07'10 2.5
2017-Mar-27 12:27N 38°28' E 014°57'2123.4
2017-Mar-27 11:34N 38°13' E 015°16'1 1.2
2017-Mar-27 10:33N 38°13' E 015°15'0 0.0
2017-Mar-27 09:33N 38°13' E 015°15'0 0.0
2017-Mar-27 08:33N 38°13' E 015°15'3 3.1
2017-Mar-27 07:34N 38°16' E 015°16'2019.4
2017-Mar-27 06:33N 38°28' E 014°57'2221.8
2017-Mar-27 05:33N 38°47' E 015°11'2322.8
2017-Mar-27 04:34N 38°25' E 015°18'1212.2
2017-Mar-27 03:33N 38°13' E 015°14'0 0.0
2017-Mar-26 17:15N 38°13' E 015°14'1013.9
2017-Mar-26 16:33N 38°21' E 015°08'11 2.7
2017-Mar-26 12:33N 38°28' E 014°57'2020.4
2017-Mar-26 11:34N 38°15' E 015°17'3 2.6
2017-Mar-26 10:33N 38°13' E 015°14'0 0.0
2017-Mar-26 09:34N 38°13' E 015°14'0 0.3
2017-Mar-26 08:34N 38°13' E 015°15'0 0.3
2017-Mar-26 07:34N 38°13' E 015°14'2017.4
2017-Mar-26 06:24N 38°28' E 014°58'2225.1
2017-Mar-26 05:32N 38°47' E 015°11'2121.5
2017-Mar-26 04:33N 38°26' E 015°16'1313.4
2017-Mar-26 03:33N 38°13' E 015°14'0 0.0
2017-Mar-25 18:11N 38°13' E 015°14'1117.0
2017-Mar-25 17:33N 38°22' E 015°08'10 2.6
2017-Mar-25 13:34N 38°28' E 014°57'2120.5
2017-Mar-25 12:33N 38°14' E 015°17'2 2.2
2017-Mar-25 11:33N 38°13' E 015°14'0 0.0
2017-Mar-25 10:33N 38°13' E 015°14'0 0.0
2017-Mar-25 09:33N 38°13' E 015°14'0 0.0
2017-Mar-25 08:33N 38°13' E 015°14'2018.0
2017-Mar-25 07:26N 38°28' E 014°57'2123.9
2017-Mar-25 06:33N 38°46' E 015°11'2120.6
2017-Mar-25 05:33N 38°26' E 015°16'1313.4
2017-Mar-25 04:33N 38°13' E 015°15'0 0.0
2017-Mar-24 17:33N 38°13' E 015°14'1818.2
2017-Mar-24 16:33N 38°27' E 014°58'2221.0
2017-Mar-24 15:29N 38°46' E 015°13'10 9.4
2017-Mar-24 14:28N 38°38' E 015°05'1516.9
2017-Mar-24 13:33N 38°23' E 015°07'1211.8
2017-Mar-24 12:33N 38°13' E 015°15'4 4.4
2017-Mar-24 11:34N 38°17' E 015°15'1716.2
2017-Mar-24 10:31N 38°29' E 014°59'3 1.1
2017-Mar-24 07:26N 38°32' E 014°58'1415.4
2017-Mar-24 06:33N 38°21' E 015°09'9 9.3
2017-Mar-24 05:33N 38°13' E 015°14'0 0.0
2017-Mar-23 17:33N 38°13' E 015°15'1817.0
2017-Mar-23 16:31N 38°25' E 014°58'2222.3
2017-Mar-23 15:33N 38°44' E 015°11'8 7.1
2017-Mar-23 14:27N 38°38' E 015°05'1617.6
2017-Mar-23 13:33N 38°23' E 015°07'1111.2
2017-Mar-23 12:33N 38°13' E 015°15'4 4.1
2017-Mar-23 11:34N 38°17' E 015°15'1717.1
2017-Mar-23 10:33N 38°29' E 014°59'4 1.3
2017-Mar-23 07:29N 38°32' E 014°57'1314.5
2017-Mar-23 06:33N 38°22' E 015°07'1010.3
2017-Mar-23 05:33N 38°13' E 015°15'0 0.0
2017-Mar-22 17:33N 38°13' E 015°15'1816.6
2017-Mar-22 16:29N 38°25' E 014°58'1920.6
2017-Mar-22 15:33N 38°42' E 015°09'5 5.3
2017-Mar-22 14:32N 38°38' E 015°05'1616.5
2017-Mar-22 13:34N 38°22' E 015°08'1110.6
2017-Mar-22 12:33N 38°13' E 015°14'1 0.7
2017-Mar-22 11:33N 38°13' E 015°15'2120.1
2017-Mar-22 10:32N 38°28' E 014°57'4 1.2
2017-Mar-22 07:33N 38°32' E 014°57'1515.0
2017-Mar-22 06:34N 38°21' E 015°10'8 8.5
2017-Mar-22 05:33N 38°13' E 015°15'0 0.0
2017-Mar-21 17:33N 38°13' E 015°15'1815.4
2017-Mar-21 16:24N 38°25' E 014°58'1720.6
2017-Mar-21 15:33N 38°41' E 015°08'4 3.3
2017-Mar-21 14:30N 38°38' E 015°05'1617.4
2017-Mar-21 13:33N 38°22' E 015°07'1110.8
2017-Mar-21 12:33N 38°13' E 015°14'1 0.6
2017-Mar-21 11:33N 38°13' E 015°15'2118.6
2017-Mar-21 10:27N 38°28' E 014°58'3 1.1
2017-Mar-21 07:26N 38°32' E 014°57'1314.8
2017-Mar-21 06:33N 38°21' E 015°07'1010.0
2017-Mar-21 05:33N 38°13' E 015°14'9 0.7
2017-Mar-20 17:33N 38°20' E 015°08'11 2.6
2017-Mar-20 13:23N 38°28' E 014°58'1923.1
2017-Mar-20 12:33N 38°15' E 015°17'3 2.9
2017-Mar-20 11:33N 38°13' E 015°14'0 0.0
2017-Mar-20 10:33N 38°13' E 015°14'0 0.0
2017-Mar-20 09:33N 38°13' E 015°14'0 0.0
2017-Mar-20 08:33N 38°13' E 015°14'2018.4
2017-Mar-20 07:27N 38°28' E 014°57'2222.4
2017-Mar-20 06:29N 38°47' E 015°11'2122.2
2017-Mar-20 05:34N 38°27' E 015°16'1413.9
2017-Mar-20 04:33N 38°13' E 015°14'9 0.9
2017-Mar-19 17:33N 38°21' E 015°08'10 2.5
2017-Mar-19 13:22N 38°28' E 014°58'1923.4
2017-Mar-19 12:34N 38°16' E 015°17'3 3.1
2017-Mar-19 11:33N 38°13' E 015°14'  
Track history (hours):
 
Tides and Currents Weather Stations Pressure Air Temp Water Temp Dewpoint Dewpoint Depression Visibility Wind Speed Wind Dir Waves Ship Positions

Calypso

Last reported at 2017-Mar-29 10:34 UTC. Time now 2017-Mar-29 11:02 UTC.
Position N 38°14' E 015°16'.

Length 32 m; draft 4.2 m.

Type: High speed craft. MMSI: 247143200.

Date/timePositionNaut miles runAvg speedWind from/ knotsBaromVisibWave heightAir tempDewpointWater temp
2017-Mar-29 10:34N 38°14' E 015°16'2018.9
2017-Mar-29 09:28N 38°28' E 014°58'3 1.1
2017-Mar-29 06:26N 38°32' E 014°57'1315.1
2017-Mar-29 05:33N 38°21' E 015°08'10 9.7
2017-Mar-29 04:33N 38°13' E 015°14'9 0.8
2017-Mar-28 16:33N 38°21' E 015°08'11 2.7
2017-Mar-28 12:26N 38°28' E 014°57'2023.2
2017-Mar-28 11:34N 38°15' E 015°17'3 2.9
2017-Mar-28 10:33N 38°13' E 015°14'0 0.3
2017-Mar-28 09:33N 38°13' E 015°15'0 0.1
2017-Mar-28 08:33N 38°13' E 015°15'0 0.3
2017-Mar-28 07:33N 38°13' E 015°14'2018.6
2017-Mar-28 06:28N 38°28' E 014°57'2223.1
2017-Mar-28 05:32N 38°47' E 015°11'2222.3
2017-Mar-28 04:33N 38°26' E 015°17'1312.8
2017-Mar-28 03:33N 38°13' E 015°14'0 0.0
2017-Mar-27 17:06N 38°13' E 015°14'1018.5
2017-Mar-27 16:33N 38°21' E 015°07'10 2.5
2017-Mar-27 12:27N 38°28' E 014°57'2123.4
2017-Mar-27 11:34N 38°13' E 015°16'1 1.2
2017-Mar-27 10:33N 38°13' E 015°15'0 0.0
2017-Mar-27 09:33N 38°13' E 015°15'0 0.0
2017-Mar-27 08:33N 38°13' E 015°15'3 3.1
2017-Mar-27 07:34N 38°16' E 015°16'2019.4
2017-Mar-27 06:33N 38°28' E 014°57'2221.8
2017-Mar-27 05:33N 38°47' E 015°11'2322.8
2017-Mar-27 04:34N 38°25' E 015°18'1212.2
2017-Mar-27 03:33N 38°13' E 015°14'0 0.0
2017-Mar-26 17:15N 38°13' E 015°14'1013.9
2017-Mar-26 16:33N 38°21' E 015°08'11 2.7
2017-Mar-26 12:33N 38°28' E 014°57'2020.4
2017-Mar-26 11:34N 38°15' E 015°17'3 2.6
2017-Mar-26 10:33N 38°13' E 015°14'0 0.0
2017-Mar-26 09:34N 38°13' E 015°14'0 0.3
2017-Mar-26 08:34N 38°13' E 015°15'0 0.3
2017-Mar-26 07:34N 38°13' E 015°14'2017.4
2017-Mar-26 06:24N 38°28' E 014°58'2225.1
2017-Mar-26 05:32N 38°47' E 015°11'2121.5
2017-Mar-26 04:33N 38°26' E 015°16'1313.4
2017-Mar-26 03:33N 38°13' E 015°14'0 0.0
2017-Mar-25 18:11N 38°13' E 015°14'1117.0
2017-Mar-25 17:33N 38°22' E 015°08'10 2.6
2017-Mar-25 13:34N 38°28' E 014°57'2120.5
2017-Mar-25 12:33N 38°14' E 015°17'2 2.2
2017-Mar-25 11:33N 38°13' E 015°14'0 0.0
2017-Mar-25 10:33N 38°13' E 015°14'0 0.0
2017-Mar-25 09:33N 38°13' E 015°14'0 0.0
2017-Mar-25 08:33N 38°13' E 015°14'2018.0
2017-Mar-25 07:26N 38°28' E 014°57'2123.9
2017-Mar-25 06:33N 38°46' E 015°11'2120.6
2017-Mar-25 05:33N 38°26' E 015°16'1313.4
2017-Mar-25 04:33N 38°13' E 015°15'0 0.0
2017-Mar-24 17:33N 38°13' E 015°14'1818.2
2017-Mar-24 16:33N 38°27' E 014°58'2221.0
2017-Mar-24 15:29N 38°46' E 015°13'10 9.4
2017-Mar-24 14:28N 38°38' E 015°05'1516.9
2017-Mar-24 13:33N 38°23' E 015°07'1211.8
2017-Mar-24 12:33N 38°13' E 015°15'4 4.4
2017-Mar-24 11:34N 38°17' E 015°15'1716.2
2017-Mar-24 10:31N 38°29' E 014°59'3 1.1
2017-Mar-24 07:26N 38°32' E 014°58'1415.4
2017-Mar-24 06:33N 38°21' E 015°09'9 9.3
2017-Mar-24 05:33N 38°13' E 015°14'0 0.0
2017-Mar-23 17:33N 38°13' E 015°15'1817.0
2017-Mar-23 16:31N 38°25' E 014°58'2222.3
2017-Mar-23 15:33N 38°44' E 015°11'8 7.1
2017-Mar-23 14:27N 38°38' E 015°05'1617.6
2017-Mar-23 13:33N 38°23' E 015°07'1111.2
2017-Mar-23 12:33N 38°13' E 015°15'4 4.1
2017-Mar-23 11:34N 38°17' E 015°15'1717.1
2017-Mar-23 10:33N 38°29' E 014°59'4 1.3
2017-Mar-23 07:29N 38°32' E 014°57'1314.5
2017-Mar-23 06:33N 38°22' E 015°07'1010.3
2017-Mar-23 05:33N 38°13' E 015°15'0 0.0
2017-Mar-22 17:33N 38°13' E 015°15'1816.6
2017-Mar-22 16:29N 38°25' E 014°58'1920.6
2017-Mar-22 15:33N 38°42' E 015°09'5 5.3
2017-Mar-22 14:32N 38°38' E 015°05'1616.5
2017-Mar-22 13:34N 38°22' E 015°08'1110.6
2017-Mar-22 12:33N 38°13' E 015°14'1 0.7
2017-Mar-22 11:33N 38°13' E 015°15'2120.1
2017-Mar-22 10:32N 38°28' E 014°57'4 1.2
2017-Mar-22 07:33N 38°32' E 014°57'1515.0
2017-Mar-22 06:34N 38°21' E 015°10'8 8.5
2017-Mar-22 05:33N 38°13' E 015°15'0 0.0
2017-Mar-21 17:33N 38°13' E 015°15'1815.4
2017-Mar-21 16:24N 38°25' E 014°58'1720.6
2017-Mar-21 15:33N 38°41' E 015°08'4 3.3
2017-Mar-21 14:30N 38°38' E 015°05'1617.4
2017-Mar-21 13:33N 38°22' E 015°07'1110.8
2017-Mar-21 12:33N 38°13' E 015°14'1 0.6
2017-Mar-21 11:33N 38°13' E 015°15'2118.6
2017-Mar-21 10:27N 38°28' E 014°58'3 1.1
2017-Mar-21 07:26N 38°32' E 014°57'1314.8
2017-Mar-21 06:33N 38°21' E 015°07'1010.0
2017-Mar-21 05:33N 38°13' E 015°14'9 0.7
2017-Mar-20 17:33N 38°20' E 015°08'11 2.6
2017-Mar-20 13:23N 38°28' E 014°58'1923.1
2017-Mar-20 12:33N 38°15' E 015°17'3 2.9
2017-Mar-20 11:33N 38°13' E 015°14'0 0.0
2017-Mar-20 10:33N 38°13' E 015°14'0 0.0
2017-Mar-20 09:33N 38°13' E 015°14'0 0.0
2017-Mar-20 08:33N 38°13' E 015°14'2018.4
2017-Mar-20 07:27N 38°28' E 014°57'2222.4
2017-Mar-20 06:29N 38°47' E 015°11'2122.2
2017-Mar-20 05:34N 38°27' E 015°16'1413.9
2017-Mar-20 04:33N 38°13' E 015°14'9 0.9
2017-Mar-19 17:33N 38°21' E 015°08'10 2.5
2017-Mar-19 13:22N 38°28' E 014°58'1923.4
2017-Mar-19 12:34N 38°16' E 015°17'3 3.1
2017-Mar-19 11:33N 38°13' E 015°14'  

Dump ship's entire track history